createdAt,value
2019-02-21T00:02:29.442Z,102056.57
2019-02-21T00:04:59.385Z,102064.84
2019-02-21T00:07:29.286Z,102059.06
2019-02-21T00:09:59.159Z,102059.92
2019-02-21T00:12:29.460Z,102065.16
2019-02-21T00:14:59.330Z,102057.75
2019-02-21T00:17:29.291Z,102064.31
2019-02-21T00:19:59.445Z,102075.20
2019-02-21T00:22:29.327Z,102067.69
2019-02-21T00:24:59.121Z,102065.07
2019-02-21T00:27:29.388Z,102063.75
2019-02-21T00:29:59.699Z,102059.45
2019-02-21T00:32:30.021Z,102056.05
2019-02-21T00:34:59.893Z,102057.88
2019-02-21T00:37:29.706Z,102053.55
2019-02-21T00:39:59.998Z,102056.38
2019-02-21T00:42:31.127Z,102053.42
2019-02-21T00:45:01.006Z,102057.42
2019-02-21T00:47:31.027Z,102065.39
2019-02-21T00:50:00.913Z,102060.20
2019-02-21T00:52:31.571Z,102051.41
2019-02-21T00:55:01.483Z,102046.06
2019-02-21T00:57:31.424Z,102047.71
2019-02-21T01:00:01.965Z,102054.73
2019-02-21T01:02:33.789Z,102054.10
2019-02-21T01:05:03.947Z,102052.13
2019-02-21T01:07:35.596Z,102050.95
2019-02-21T01:10:05.645Z,102058.88
2019-02-21T01:12:35.636Z,102058.09
2019-02-21T01:15:06.828Z,102058.31
2019-02-21T01:17:36.834Z,102058.38
2019-02-21T01:20:07.023Z,102062.38
2019-02-21T01:22:37.937Z,102063.30
2019-02-21T01:25:08.137Z,102065.91
2019-02-21T01:27:38.077Z,102073.27
2019-02-21T01:30:08.624Z,102067.63
2019-02-21T01:32:38.941Z,102069.79
2019-02-21T01:35:08.911Z,102068.94
2019-02-21T01:37:38.819Z,102069.85
2019-02-21T01:40:08.908Z,102072.88
2019-02-21T01:42:39.822Z,102072.41
2019-02-21T01:45:10.159Z,102076.80
2019-02-21T01:47:40.152Z,102078.52
2019-02-21T01:50:10.207Z,102073.66
2019-02-21T01:52:40.013Z,102076.68
2019-02-21T01:55:10.533Z,102082.78
2019-02-21T01:57:40.859Z,102083.11
2019-02-21T02:00:10.923Z,102079.54
2019-02-21T02:02:41.335Z,102076.85
2019-02-21T02:05:11.424Z,102078.50
2019-02-21T02:07:41.319Z,102078.83
2019-02-21T02:10:11.753Z,102078.63
2019-02-21T02:12:41.699Z,102081.49
2019-02-21T02:15:12.091Z,102084.78
2019-02-21T02:17:41.994Z,102078.48
2019-02-21T02:20:11.954Z,102078.75
2019-02-21T02:22:41.840Z,102083.44
2019-02-21T02:25:12.163Z,102077.14
2019-02-21T02:27:42.689Z,102073.59
2019-02-21T02:30:12.639Z,102073.08
2019-02-21T02:32:42.879Z,102071.70
2019-02-21T02:35:13.513Z,102077.27
2019-02-21T02:37:43.459Z,102078.06
2019-02-21T02:40:13.408Z,102083.14
2019-02-21T02:42:44.145Z,102085.64
2019-02-21T02:45:14.083Z,102085.11
2019-02-21T02:47:44.409Z,102081.50
2019-02-21T02:50:14.283Z,102083.14
2019-02-21T02:52:44.152Z,102080.91
2019-02-21T02:55:14.305Z,102077.83
2019-02-21T02:57:44.838Z,102100.44
2019-02-21T03:00:15.374Z,102096.36
2019-02-21T03:02:45.675Z,102096.69
2019-02-21T03:05:15.816Z,102098.86
2019-02-21T03:07:46.073Z,102107.98
2019-02-21T03:10:16.233Z,102098.33
2019-02-21T03:12:47.160Z,102103.06
2019-02-21T03:15:18.103Z,102104.37
2019-02-21T03:17:47.912Z,102106.08
2019-02-21T03:20:17.797Z,102102.53
2019-02-21T03:22:47.683Z,102102.92
2019-02-21T03:25:17.969Z,102101.55
2019-02-21T03:27:48.264Z,102109.78
2019-02-21T03:30:18.221Z,102103.22
2019-02-21T03:32:48.121Z,102100.69
2019-02-21T03:35:18.072Z,102102.75
2019-02-21T03:37:48.915Z,102108.41
2019-02-21T03:40:18.852Z,102104.86
2019-02-21T03:42:48.741Z,102093.03
2019-02-21T03:45:18.751Z,102099.14
2019-02-21T03:47:48.833Z,102105.25
2019-02-21T03:50:19.177Z,102096.91
2019-02-21T03:52:49.106Z,102098.29
2019-02-21T03:55:19.428Z,102096.58
2019-02-21T03:57:49.386Z,102100.98
2019-02-21T04:00:19.339Z,102098.81
2019-02-21T04:02:49.296Z,102095.80
2019-02-21T04:05:19.909Z,102107.62
2019-02-21T04:07:50.521Z,102101.16
2019-02-21T04:10:20.475Z,102098.98
2019-02-21T04:12:50.351Z,102096.75
2019-02-21T04:15:20.413Z,102098.81
2019-02-21T04:17:50.353Z,102100.13
2019-02-21T04:20:20.358Z,102100.06
2019-02-21T04:22:50.371Z,102105.25
2019-02-21T04:25:20.344Z,102100.39
2019-02-21T04:27:50.291Z,102099.47
2019-02-21T04:30:20.254Z,102102.42
2019-02-21T04:32:50.222Z,102098.48
2019-02-21T04:35:20.024Z,102095.39
2019-02-21T04:37:50.265Z,102092.38
2019-02-21T04:40:20.074Z,102094.08
2019-02-21T04:42:50.018Z,102091.98
2019-02-21T04:45:19.978Z,102087.64
2019-02-21T04:47:49.926Z,102086.47
2019-02-21T04:50:19.817Z,102086.14
2019-02-21T04:52:50.027Z,102080.67
2019-02-21T04:55:19.908Z,102078.24
2019-02-21T04:57:50.201Z,102069.19
2019-02-21T05:00:20.901Z,102076.34
2019-02-21T05:02:50.767Z,102083.14
2019-02-21T05:05:20.654Z,102089.84
2019-02-21T05:07:50.863Z,102087.09
2019-02-21T05:10:20.705Z,102084.23
2019-02-21T05:12:50.504Z,102081.41
2019-02-21T05:15:20.840Z,102078.59
2019-02-21T05:17:50.795Z,102081.44
2019-02-21T05:20:20.733Z,102078.61
2019-02-21T05:22:50.923Z,102074.47
2019-02-21T05:25:20.795Z,102070.77
2019-02-21T05:27:58.157Z,102072.20
2019-02-21T05:30:28.399Z,102076.72
2019-02-21T05:33:06.899Z,102071.15
2019-02-21T05:35:50.054Z,102069.44
2019-02-21T05:38:28.680Z,102072.98
2019-02-21T05:41:15.381Z,102069.20
2019-02-21T05:44:01.275Z,102074.45
2019-02-21T05:46:50.475Z,102081.41
2019-02-21T05:49:26.591Z,102076.68
2019-02-21T05:52:27.911Z,102079.76
2019-02-21T05:55:30.087Z,102081.98
2019-02-21T05:58:05.250Z,102086.78
2019-02-21T06:00:52.572Z,102082.05
2019-02-21T06:03:59.894Z,102078.11
2019-02-21T06:06:52.536Z,102085.20
2019-02-21T06:09:53.900Z,102082.63
2019-02-21T06:12:33.477Z,102079.16
2019-02-21T06:15:20.998Z,102083.09
2019-02-21T06:18:17.924Z,102077.84
2019-02-21T06:20:57.916Z,102083.95
2019-02-21T06:23:52.695Z,102083.61
2019-02-21T06:26:39.968Z,102080.98
2019-02-21T06:29:17.251Z,102090.95
2019-02-21T06:31:47.207Z,102093.19
2019-02-21T06:34:17.241Z,102097.13
2019-02-21T06:36:47.428Z,102106.70
2019-02-21T06:39:17.734Z,102102.24
2019-02-21T06:41:58.714Z,102104.87
2019-02-21T06:44:19.626Z,102103.68
2019-02-21T06:46:49.573Z,102101.58
2019-02-21T06:49:19.478Z,102109.44
2019-02-21T06:51:49.694Z,102116.92
2019-02-21T06:54:19.674Z,102123.41
2019-02-21T06:56:50.740Z,102121.70
2019-02-21T06:59:20.709Z,102120.84
2019-02-21T07:01:50.579Z,102126.09
2019-02-21T07:04:20.460Z,102131.73
2019-02-21T07:06:50.332Z,102142.69
2019-02-21T07:09:20.297Z,102131.73
2019-02-21T07:11:50.242Z,102134.81
2019-02-21T07:14:20.122Z,102134.76
2019-02-21T07:16:50.660Z,102135.22
2019-02-21T07:19:20.566Z,102142.23
2019-02-21T07:21:51.012Z,102140.00
2019-02-21T07:24:20.824Z,102143.42
2019-02-21T07:26:50.769Z,102143.36
2019-02-21T07:29:20.723Z,102142.78
2019-02-21T07:31:50.677Z,102152.75
2019-02-21T07:34:20.879Z,102158.70
2019-02-21T07:36:50.842Z,102157.27
2019-02-21T07:39:21.017Z,102157.54
2019-02-21T07:41:51.048Z,102158.66
2019-02-21T07:44:20.933Z,102161.01
2019-02-21T07:46:53.341Z,102159.45
2019-02-21T07:49:22.848Z,102160.81
2019-02-21T07:51:53.028Z,102160.36
2019-02-21T07:54:22.995Z,102159.48
2019-02-21T07:56:52.952Z,102163.92
2019-02-21T07:59:22.913Z,102168.85
2019-02-21T08:01:53.187Z,102168.03
2019-02-21T08:04:23.072Z,102166.06
2019-02-21T08:06:55.568Z,102164.61
2019-02-21T08:09:24.567Z,102171.44
2019-02-21T08:11:54.771Z,102177.02
2019-02-21T08:14:25.038Z,102186.91
2019-02-21T08:16:56.123Z,102182.70
2019-02-21T08:19:26.533Z,102189.36
2019-02-21T08:21:56.418Z,102173.39
2019-02-21T08:24:26.215Z,102180.55
2019-02-21T08:26:56.511Z,102192.06
2019-02-21T08:29:26.460Z,102191.83
2019-02-21T08:31:56.415Z,102189.28
2019-02-21T08:34:31.277Z,102185.05
2019-02-21T08:37:01.228Z,102186.09
2019-02-21T08:39:31.175Z,102185.64
2019-02-21T08:42:01.072Z,102187.13
2019-02-21T08:44:31.013Z,102186.42
2019-02-21T08:47:01.036Z,102190.94
2019-02-21T08:49:30.907Z,102195.52
2019-02-21T08:52:00.779Z,102199.61
2019-02-21T08:54:31.120Z,102201.09
2019-02-21T08:57:01.087Z,102212.63
2019-02-21T08:59:31.254Z,102210.63
2019-02-21T09:02:04.874Z,102217.77
2019-02-21T09:04:33.535Z,102214.41
2019-02-21T09:07:03.893Z,102218.61
2019-02-21T09:09:33.769Z,102208.78
2019-02-21T09:12:05.626Z,102212.12
2019-02-21T09:14:35.860Z,102210.16
2019-02-21T09:17:09.312Z,102220.39
2019-02-21T09:19:38.507Z,102220.63
2019-02-21T09:22:08.583Z,102215.22
2019-02-21T09:24:42.297Z,102217.13
2019-02-21T09:27:10.795Z,102216.97
2019-02-21T09:29:40.750Z,102220.70
2019-02-21T09:32:10.624Z,102218.38
2019-02-21T09:34:40.498Z,102220.44
2019-02-21T09:37:10.799Z,102225.16
2019-02-21T09:39:40.681Z,102224.00
2019-02-21T09:42:10.685Z,102231.21
2019-02-21T09:44:40.637Z,102234.23
2019-02-21T09:47:10.602Z,102241.20
2019-02-21T09:49:41.256Z,102236.17
2019-02-21T09:52:11.206Z,102240.33
2019-02-21T09:54:41.097Z,102240.33
2019-02-21T09:57:13.641Z,102234.02
2019-02-21T09:59:44.731Z,102252.66
2019-02-21T10:02:14.753Z,102257.11
2019-02-21T10:04:44.929Z,102256.69
2019-02-21T10:07:14.892Z,102255.52
2019-02-21T10:09:44.876Z,102245.11
2019-02-21T10:12:15.809Z,102237.69
2019-02-21T10:14:45.767Z,102238.22
2019-02-21T10:17:15.723Z,102240.50
2019-02-21T10:19:45.526Z,102251.66
2019-02-21T10:22:15.502Z,102256.86
2019-02-21T10:24:46.548Z,102252.73
2019-02-21T10:27:16.500Z,102247.26
2019-02-21T10:29:46.576Z,102249.34
2019-02-21T10:32:16.859Z,102249.95
2019-02-21T10:34:46.844Z,102250.17
2019-02-21T10:37:17.155Z,102257.34
2019-02-21T10:39:48.011Z,102236.44
2019-02-21T10:42:18.362Z,102244.95
2019-02-21T10:44:48.336Z,102239.89
2019-02-21T10:47:18.677Z,102239.82
2019-02-21T10:49:48.623Z,102243.23
2019-02-21T10:52:18.651Z,102249.20
2019-02-21T10:54:48.616Z,102248.98
2019-02-21T10:57:18.576Z,102242.59
2019-02-21T10:59:48.520Z,102238.80
2019-02-21T11:02:18.796Z,102227.00
2019-02-21T11:04:54.939Z,102222.48
2019-02-21T11:07:20.329Z,102222.95
2019-02-21T11:09:50.293Z,102225.84
2019-02-21T11:12:20.246Z,102224.73
2019-02-21T11:14:50.222Z,102222.30
2019-02-21T11:17:20.195Z,102218.91
2019-02-21T11:19:50.153Z,102223.19
2019-02-21T11:22:20.154Z,102218.59
2019-02-21T11:24:50.118Z,102223.41
2019-02-21T11:27:20.098Z,102218.68
2019-02-21T11:29:49.898Z,102230.88
2019-02-21T11:32:19.780Z,102221.59
2019-02-21T11:34:49.655Z,102217.06
2019-02-21T11:37:19.918Z,102215.80
2019-02-21T11:39:50.086Z,102214.20
2019-02-21T11:42:19.995Z,102202.63
2019-02-21T11:44:49.871Z,102206.41
2019-02-21T11:47:19.871Z,102206.27
2019-02-21T11:49:50.033Z,102199.83
2019-02-21T11:52:20.022Z,102215.63
2019-02-21T11:54:49.922Z,102219.59
2019-02-21T11:57:19.893Z,102217.05
2019-02-21T11:59:50.202Z,102218.08
2019-02-21T12:02:20.436Z,102218.94
2019-02-21T12:04:50.387Z,102221.40
2019-02-21T12:07:20.346Z,102220.20
2019-02-21T12:09:50.370Z,102215.20
2019-02-21T12:12:20.261Z,102221.77
2019-02-21T12:14:50.215Z,102216.28
2019-02-21T12:17:20.174Z,102222.05
2019-02-21T12:19:50.338Z,102213.91
2019-02-21T12:22:20.611Z,102214.64
2019-02-21T12:24:50.887Z,102211.70
2019-02-21T12:27:21.122Z,102218.51
2019-02-21T12:29:51.328Z,102220.77
2019-02-21T12:32:21.336Z,102224.61
2019-02-21T12:34:51.209Z,102226.41
2019-02-21T12:37:21.378Z,102222.91
2019-02-21T12:39:51.328Z,102217.27
2019-02-21T12:42:21.622Z,102214.16
2019-02-21T12:44:52.293Z,102208.48
2019-02-21T12:47:22.209Z,102208.95
2019-02-21T12:49:52.080Z,102204.13
2019-02-21T12:52:22.157Z,102205.08
2019-02-21T12:54:52.030Z,102197.66
2019-02-21T12:57:22.625Z,102191.23
2019-02-21T12:59:52.645Z,102195.56
2019-02-21T13:02:22.523Z,102189.17
2019-02-21T13:04:52.704Z,102191.86
2019-02-21T13:07:22.875Z,102194.95
2019-02-21T13:09:52.820Z,102194.38
2019-02-21T13:12:22.788Z,102193.13
2019-02-21T13:14:52.740Z,102197.45
2019-02-21T13:17:23.150Z,102194.48
2019-02-21T13:19:53.051Z,102200.80
2019-02-21T13:22:23.166Z,102190.16
2019-02-21T13:24:53.056Z,102193.33
2019-02-21T13:27:23.342Z,102190.30
2019-02-21T13:29:54.682Z,102186.43
2019-02-21T13:32:25.029Z,102184.48
2019-02-21T13:34:54.920Z,102181.87
2019-02-21T13:37:28.581Z,102200.72
2019-02-21T13:39:56.863Z,102195.21
2019-02-21T13:42:28.879Z,102209.91
2019-02-21T13:44:58.998Z,102206.05
2019-02-21T13:47:29.045Z,102206.30
2019-02-21T13:49:58.942Z,102205.21
2019-02-21T13:52:28.902Z,102210.99
2019-02-21T13:54:58.991Z,102213.12
2019-02-21T13:57:28.964Z,102220.63
2019-02-21T13:59:58.950Z,102223.45
2019-02-21T14:02:28.835Z,102228.69
2019-02-21T14:04:59.037Z,102229.84
2019-02-21T14:07:29.047Z,102230.51
2019-02-21T14:09:59.914Z,102228.80
2019-02-21T14:12:29.907Z,102237.37
2019-02-21T14:15:00.212Z,102232.77
2019-02-21T14:17:30.262Z,102230.60
2019-02-21T14:20:00.591Z,102231.45
2019-02-21T14:22:30.580Z,102237.13
2019-02-21T14:25:00.562Z,102235.12
2019-02-21T14:27:31.855Z,102233.99
2019-02-21T14:30:03.076Z,102239.01
2019-02-21T14:32:35.302Z,102240.53
2019-02-21T14:35:05.517Z,102246.36
2019-02-21T14:37:35.368Z,102244.48
2019-02-21T14:40:05.908Z,102240.98
2019-02-21T14:42:36.319Z,102238.80
2019-02-21T14:45:07.345Z,102241.07
2019-02-21T14:47:37.688Z,102242.02
2019-02-21T14:50:08.189Z,102242.39
2019-02-21T14:52:38.415Z,102243.72
2019-02-21T14:55:09.549Z,102242.77
2019-02-21T14:57:41.157Z,102239.75
2019-02-21T15:00:15.189Z,102242.02
2019-02-21T15:02:45.649Z,102236.34
2019-02-21T15:05:15.639Z,102232.75
2019-02-21T15:07:45.595Z,102226.81
2019-02-21T15:10:15.988Z,102232.58
2019-02-21T15:12:45.971Z,102229.81
2019-02-21T15:15:16.894Z,102235.95
2019-02-21T15:17:47.919Z,102228.61
2019-02-21T15:20:18.107Z,102227.08
2019-02-21T15:22:48.058Z,102223.86
2019-02-21T15:25:18.847Z,102227.55
2019-02-21T15:27:48.802Z,102225.38
2019-02-21T15:30:19.732Z,102225.56
2019-02-21T15:32:49.707Z,102223.86
2019-02-21T15:35:19.918Z,102222.63
2019-02-21T15:37:50.322Z,102219.61
2019-02-21T15:40:20.290Z,102216.11
2019-02-21T15:42:52.553Z,102215.77
2019-02-21T15:45:23.739Z,102217.66
2019-02-21T15:47:53.974Z,102222.56
2019-02-21T15:50:23.879Z,102219.16
2019-02-21T15:52:53.784Z,102229.36
2019-02-21T15:55:23.751Z,102223.22
2019-02-21T15:58:03.482Z,102224.55
2019-02-21T16:00:25.415Z,102224.16
2019-02-21T16:02:55.339Z,102223.69
2019-02-21T16:05:25.871Z,102218.50
2019-02-21T16:07:55.838Z,102216.70
2019-02-21T16:10:25.811Z,102221.98
2019-02-21T16:12:56.429Z,102218.50
2019-02-21T16:15:26.808Z,102230.48
2019-02-21T16:17:57.366Z,102231.44
2019-02-21T16:20:27.709Z,102229.83
2019-02-21T16:22:57.594Z,102228.62
2019-02-21T16:25:28.497Z,102231.36
2019-02-21T16:27:58.464Z,102227.02
2019-02-21T16:30:28.685Z,102230.13
2019-02-21T16:32:58.965Z,102234.57
2019-02-21T16:35:28.845Z,102239.01
2019-02-21T16:37:58.856Z,102236.92
2019-02-21T16:40:29.773Z,102235.41
2019-02-21T16:42:59.739Z,102242.20
2019-02-21T16:45:42.447Z,102249.49
2019-02-21T16:48:01.414Z,102247.59
2019-02-21T16:50:31.850Z,102249.09
2019-02-21T16:53:01.788Z,102248.42
2019-02-21T16:55:31.917Z,102250.80
2019-02-21T16:58:01.773Z,102256.33
2019-02-21T17:00:47.684Z,102264.43
2019-02-21T17:03:03.705Z,102267.63
2019-02-21T17:05:33.605Z,102271.69
2019-02-21T17:08:03.558Z,102276.97
2019-02-21T17:10:33.596Z,102278.59
2019-02-21T17:13:03.543Z,102283.50
2019-02-21T17:15:33.494Z,102285.45
2019-02-21T17:18:04.058Z,102289.42
2019-02-21T17:20:34.110Z,102292.53
2019-02-21T17:23:04.079Z,102299.91
2019-02-21T17:25:34.335Z,102302.55
2019-02-21T17:28:04.292Z,102302.17
2019-02-21T17:30:34.197Z,102299.14
2019-02-21T17:33:04.079Z,102296.03
2019-02-21T17:35:34.232Z,102302.55
2019-02-21T17:38:04.113Z,102303.49
2019-02-21T17:40:34.095Z,102310.86
2019-02-21T17:43:04.043Z,102312.56
2019-02-21T17:45:34.208Z,102322.67
2019-02-21T17:48:04.270Z,102323.14
2019-02-21T17:50:34.295Z,102327.48
2019-02-21T17:53:04.242Z,102325.70
2019-02-21T17:55:34.278Z,102325.19
2019-02-21T17:58:05.478Z,102317.27
2019-02-21T18:00:37.275Z,102322.20
2019-02-21T18:03:07.346Z,102329.66
2019-02-21T18:05:37.312Z,102327.48
2019-02-21T18:08:07.266Z,102332.86
2019-02-21T18:10:37.233Z,102347.48
2019-02-21T18:13:07.194Z,102349.19
2019-02-21T18:15:37.148Z,102349.66
2019-02-21T18:18:07.109Z,102353.70
2019-02-21T18:20:37.049Z,102357.67
2019-02-21T18:23:06.932Z,102361.63
2019-02-21T18:25:40.018Z,102366.16
2019-02-21T18:28:11.075Z,102372.76
2019-02-21T18:30:41.038Z,102381.24
2019-02-21T18:33:11.039Z,102378.59
2019-02-21T18:35:41.008Z,102377.83
2019-02-21T18:38:11.307Z,102372.16
2019-02-21T18:40:41.255Z,102383.28
2019-02-21T18:43:11.215Z,102381.58
2019-02-21T18:45:41.175Z,102388.77
2019-02-21T18:48:11.133Z,102390.56
2019-02-21T18:50:41.085Z,102385.91
2019-02-21T18:53:11.068Z,102382.50
2019-02-21T18:55:41.078Z,102393.16
2019-02-21T18:58:11.025Z,102386.63
2019-02-21T19:00:41.046Z,102381.42
2019-02-21T19:03:11.060Z,102372.27
2019-02-21T19:05:41.031Z,102371.41
2019-02-21T19:08:11.273Z,102379.34
2019-02-21T19:10:41.241Z,102371.99
2019-02-21T19:13:11.112Z,102378.30
2019-02-21T19:15:41.279Z,102377.36
2019-02-21T19:18:11.631Z,102384.91
2019-02-21T19:20:41.662Z,102371.69
2019-02-21T19:23:11.814Z,102375.73
2019-02-21T19:25:41.801Z,102375.82
2019-02-21T19:28:12.122Z,102381.57
2019-02-21T19:30:45.868Z,102379.40
2019-02-21T19:33:15.887Z,102378.16
2019-02-21T19:35:48.408Z,102378.63
2019-02-21T19:38:17.650Z,102376.07
2019-02-21T19:40:47.669Z,102377.86
2019-02-21T19:43:36.776Z,102381.81
2019-02-21T19:46:06.797Z,102389.74
2019-02-21T19:48:36.839Z,102388.03
2019-02-21T19:51:07.243Z,102388.12
2019-02-21T19:53:37.212Z,102395.77
2019-02-21T19:56:07.202Z,102387.46
2019-02-21T19:58:37.103Z,102401.22
2019-02-21T20:01:07.366Z,102403.00
2019-02-21T20:03:37.405Z,102396.48
2019-02-21T20:06:07.394Z,102400.99
2019-02-21T20:08:37.385Z,102411.17
2019-02-21T20:11:07.447Z,102417.85
2019-02-21T20:13:37.418Z,102416.14
2019-02-21T20:16:07.558Z,102416.61
2019-02-21T20:18:37.491Z,102418.48
2019-02-21T20:21:07.634Z,102418.67
2019-02-21T20:23:37.591Z,102426.20
2019-02-21T20:26:17.876Z,102425.43
2019-02-21T20:28:40.428Z,102427.22
2019-02-21T20:31:10.792Z,102432.03
2019-02-21T20:33:40.935Z,102438.25
2019-02-21T20:36:10.895Z,102438.25
2019-02-21T20:38:40.873Z,102432.97
2019-02-21T20:41:10.933Z,102439.95
2019-02-21T20:43:41.300Z,102442.59
2019-02-21T20:46:11.306Z,102447.10
2019-02-21T20:48:41.478Z,102457.66
2019-02-21T20:51:11.457Z,102458.59
2019-02-21T20:53:41.412Z,102457.20
2019-02-21T20:56:11.413Z,102457.58
2019-02-21T20:58:41.703Z,102469.55
2019-02-21T21:01:12.607Z,102465.19
2019-02-21T21:03:42.610Z,102465.58
2019-02-21T21:06:14.117Z,102466.44
2019-02-21T21:08:46.688Z,102470.86
2019-02-21T21:11:16.067Z,102464.80
2019-02-21T21:13:46.082Z,102465.27
2019-02-21T21:16:15.957Z,102474.59
2019-02-21T21:18:46.070Z,102482.52
2019-02-21T21:21:16.036Z,102490.05
2019-02-21T21:23:45.998Z,102494.00
2019-02-21T21:26:16.311Z,102496.18
2019-02-21T21:28:46.614Z,102495.71
2019-02-21T21:31:16.590Z,102497.42
2019-02-21T21:33:46.474Z,102502.70
2019-02-21T21:36:16.454Z,102501.84
2019-02-21T21:38:53.800Z,102510.63
2019-02-21T21:41:18.031Z,102517.22
2019-02-21T21:43:47.929Z,102520.64
2019-02-21T21:46:17.895Z,102528.48
2019-02-21T21:48:47.787Z,102524.45
2019-02-21T21:51:17.769Z,102528.33
2019-02-21T21:53:47.743Z,102531.44
2019-02-21T21:56:17.727Z,102541.92
2019-02-21T21:58:48.708Z,102543.16
2019-02-21T22:01:18.983Z,102547.12
2019-02-21T22:03:49.177Z,102547.12
2019-02-21T22:06:19.170Z,102556.76
2019-02-21T22:08:49.101Z,102561.08
2019-02-21T22:11:19.425Z,102557.61
2019-02-21T22:13:49.398Z,102562.89
2019-02-21T22:16:19.363Z,102562.04
2019-02-21T22:18:49.271Z,102564.28
2019-02-21T22:21:19.545Z,102561.26
2019-02-21T22:23:49.514Z,102564.83
2019-02-21T22:26:19.515Z,102563.51
2019-02-21T22:28:49.842Z,102562.73
2019-02-21T22:31:20.107Z,102572.91
2019-02-21T22:33:49.976Z,102576.02
2019-02-21T22:36:20.245Z,102574.77
2019-02-21T22:38:50.208Z,102572.13
2019-02-21T22:41:20.446Z,102572.20
2019-02-21T22:43:50.495Z,102570.56
2019-02-21T22:46:20.493Z,102567.53
2019-02-21T22:48:50.389Z,102571.11
2019-02-21T22:51:20.638Z,102566.40
2019-02-21T22:53:50.695Z,102570.36
2019-02-21T22:56:20.677Z,102569.58
2019-02-21T22:58:50.644Z,102569.19
2019-02-21T23:01:28.175Z,102566.70
2019-02-21T23:04:43.086Z,102569.34
2019-02-21T23:07:43.426Z,102568.64
2019-02-21T23:10:13.836Z,102572.74
2019-02-21T23:12:43.809Z,102575.09
2019-02-21T23:15:15.595Z,102587.59
2019-02-21T23:17:45.489Z,102586.80
2019-02-21T23:20:15.503Z,102592.16
2019-02-21T23:22:45.467Z,102585.56
2019-02-21T23:25:15.470Z,102590.05
2019-02-21T23:27:45.445Z,102589.66
2019-02-21T23:30:15.606Z,102589.27
2019-02-21T23:32:46.522Z,102591.13
2019-02-21T23:35:21.104Z,102596.91
2019-02-21T23:37:52.133Z,102592.55
2019-02-21T23:40:22.945Z,102597.91
2019-02-21T23:42:52.924Z,102599.62
2019-02-21T23:45:22.923Z,102596.98
2019-02-21T23:47:52.909Z,102595.34
2019-02-21T23:50:22.715Z,102594.48
2019-02-21T23:52:52.593Z,102594.09
2019-02-21T23:55:22.815Z,102591.92
2019-02-21T23:57:53.146Z,102585.47
